createdAt,value
2023-04-20T00:01:23.264Z,5.70
2023-04-20T00:03:51.897Z,8.15
2023-04-20T00:06:22.000Z,6.68
2023-04-20T00:08:49.980Z,6.03
2023-04-20T00:11:17.704Z,6.00
2023-04-20T00:13:46.872Z,6.90
2023-04-20T00:16:14.816Z,6.57
2023-04-20T00:18:42.913Z,7.32
2023-04-20T00:21:10.610Z,16.75
2023-04-20T00:23:38.310Z,11.65
2023-04-20T00:26:06.390Z,7.18
2023-04-20T00:28:34.189Z,7.50
2023-04-20T00:31:03.353Z,6.60
2023-04-20T00:33:31.111Z,8.07
2023-04-20T00:35:58.874Z,7.07
2023-04-20T00:38:27.784Z,6.82
2023-04-20T00:40:56.297Z,8.90
2023-04-20T00:43:24.262Z,5.88
2023-04-20T00:45:52.627Z,8.10
2023-04-20T00:48:23.508Z,15.88
2023-04-20T00:50:52.185Z,8.18
2023-04-20T00:53:20.415Z,6.60
2023-04-20T00:55:48.666Z,7.95
2023-04-20T00:58:16.418Z,6.35
2023-04-20T01:00:44.743Z,7.88
2023-04-20T01:03:12.709Z,7.30
2023-04-20T01:05:42.225Z,9.23
2023-04-20T01:08:09.958Z,7.22
2023-04-20T01:10:37.643Z,11.57
2023-04-20T01:13:05.376Z,9.85
2023-04-20T01:15:34.151Z,8.48
2023-04-20T01:18:02.885Z,8.73
2023-04-20T01:20:30.651Z,6.95
2023-04-20T01:22:59.744Z,8.35
2023-04-20T01:25:27.551Z,9.50
2023-04-20T01:27:55.366Z,9.73
2023-04-20T01:30:23.193Z,7.35
2023-04-20T01:32:51.180Z,8.25
2023-04-20T01:35:18.996Z,8.32
2023-04-20T01:37:46.803Z,10.50
2023-04-20T01:40:16.411Z,10.10
2023-04-20T01:42:44.197Z,7.90
2023-04-20T01:45:12.416Z,13.13
2023-04-20T01:47:40.270Z,10.73
2023-04-20T01:50:08.790Z,20.73
2023-04-20T01:52:36.660Z,11.73
2023-04-20T01:55:04.577Z,9.40
2023-04-20T01:57:33.764Z,12.90
2023-04-20T02:00:01.476Z,12.80
2023-04-20T02:02:29.530Z,9.27
2023-04-20T02:04:57.448Z,8.32
2023-04-20T02:07:25.500Z,12.98
2023-04-20T02:09:53.644Z,9.15
2023-04-20T02:12:21.358Z,9.50
2023-04-20T02:14:50.496Z,10.07
2023-04-20T02:17:18.461Z,12.38
2023-04-20T02:19:46.909Z,10.02
2023-04-20T02:22:14.907Z,11.57
2023-04-20T02:24:43.742Z,13.43
2023-04-20T02:27:11.641Z,9.20
2023-04-20T02:29:39.479Z,9.55
2023-04-20T02:32:08.878Z,10.05
2023-04-20T02:34:36.714Z,10.25
2023-04-20T02:37:04.418Z,12.75
2023-04-20T02:39:32.141Z,10.20
2023-04-20T02:42:00.153Z,9.88
2023-04-20T02:44:28.006Z,9.82
2023-04-20T02:46:55.790Z,10.82
2023-04-20T02:49:24.926Z,10.70
2023-04-20T02:51:52.733Z,10.18
2023-04-20T02:54:20.450Z,11.85
2023-04-20T02:56:48.229Z,10.93
2023-04-20T02:59:16.134Z,14.82
2023-04-20T03:01:44.337Z,11.45
2023-04-20T03:04:12.280Z,12.38
2023-04-20T03:06:43.004Z,11.40
2023-04-20T03:09:10.734Z,13.93
2023-04-20T03:11:38.526Z,9.45
2023-04-20T03:14:06.310Z,15.02
2023-04-20T03:16:34.158Z,10.35
2023-04-20T03:19:01.955Z,11.77
2023-04-20T03:21:29.675Z,9.95
2023-04-20T03:23:58.779Z,11.73
2023-04-20T03:26:26.848Z,12.70
2023-04-20T03:28:54.813Z,12.93
2023-04-20T03:31:22.613Z,51.97
2023-04-20T03:33:50.458Z,15.45
2023-04-20T03:36:18.313Z,11.43
2023-04-20T03:38:46.097Z,11.25
2023-04-20T03:41:15.225Z,11.55
2023-04-20T03:43:43.149Z,12.15
2023-04-20T03:46:10.917Z,11.60
2023-04-20T03:48:38.710Z,9.07
2023-04-20T03:51:06.619Z,11.27
2023-04-20T03:53:34.535Z,13.27
2023-04-20T03:56:02.481Z,14.40
2023-04-20T03:58:31.656Z,12.40
2023-04-20T04:01:04.538Z,10.48
2023-04-20T04:03:32.667Z,11.05
2023-04-20T04:06:00.683Z,12.50
2023-04-20T04:08:28.542Z,13.43
2023-04-20T04:10:56.338Z,12.00
2023-04-20T04:13:24.325Z,10.23
2023-04-20T04:15:53.532Z,12.07
2023-04-20T04:18:22.178Z,13.25
2023-04-20T04:20:50.081Z,12.38
2023-04-20T04:23:17.843Z,11.45
2023-04-20T04:25:46.129Z,12.45
2023-04-20T04:28:14.767Z,13.43
2023-04-20T04:30:42.599Z,13.20
2023-04-20T04:33:14.710Z,12.55
2023-04-20T04:35:43.993Z,13.00
2023-04-20T04:38:12.893Z,14.73
2023-04-20T04:40:41.680Z,14.65
2023-04-20T04:43:10.197Z,15.75
2023-04-20T04:45:39.603Z,13.45
2023-04-20T04:48:09.048Z,14.68
2023-04-20T04:50:38.378Z,15.13
2023-04-20T04:53:06.114Z,15.50
2023-04-20T04:55:34.123Z,15.23
2023-04-20T04:58:02.657Z,15.30
2023-04-20T05:00:31.339Z,15.20
2023-04-20T05:02:59.244Z,14.88
2023-04-20T05:05:27.343Z,14.13
2023-04-20T05:07:56.726Z,13.63
2023-04-20T05:10:24.433Z,24.20
2023-04-20T05:12:52.395Z,13.23
2023-04-20T05:15:20.426Z,16.20
2023-04-20T05:17:49.696Z,13.80
2023-04-20T05:20:17.927Z,15.48
2023-04-20T05:22:45.775Z,13.52
2023-04-20T05:25:15.386Z,15.95
2023-04-20T05:27:43.128Z,16.20
2023-04-20T05:30:20.390Z,15.93
2023-04-20T05:32:51.529Z,19.33
2023-04-20T05:35:21.392Z,14.80
2023-04-20T05:37:49.438Z,15.85
2023-04-20T05:40:18.616Z,19.95
2023-04-20T05:42:46.355Z,17.17
2023-04-20T05:45:14.135Z,16.90
2023-04-20T05:47:41.943Z,16.58
2023-04-20T05:50:10.929Z,14.73
2023-04-20T05:52:38.673Z,18.27
2023-04-20T05:55:07.306Z,16.02
2023-04-20T05:57:42.770Z,16.65
2023-04-20T06:00:12.307Z,16.00
2023-04-20T06:02:40.407Z,15.65
2023-04-20T06:05:10.465Z,16.25
2023-04-20T06:07:38.893Z,17.10
2023-04-20T06:10:08.390Z,20.40
2023-04-20T06:12:38.098Z,19.40
2023-04-20T06:15:08.528Z,14.57
2023-04-20T06:17:37.797Z,16.55
2023-04-20T06:20:06.878Z,16.20
2023-04-20T06:22:34.756Z,15.75
2023-04-20T06:25:02.920Z,14.52
2023-04-20T06:27:31.176Z,14.88
2023-04-20T06:30:00.814Z,14.02
2023-04-20T06:32:28.693Z,14.52
2023-04-20T06:34:56.477Z,13.90
2023-04-20T06:37:24.190Z,13.80
2023-04-20T06:39:55.017Z,14.45
2023-04-20T06:42:22.858Z,12.77
2023-04-20T06:44:50.877Z,11.57
2023-04-20T06:47:20.105Z,25.63
2023-04-20T06:49:47.937Z,11.50
2023-04-20T06:52:15.802Z,11.85
2023-04-20T06:54:43.608Z,12.13
2023-04-20T06:57:11.399Z,11.20
2023-04-20T06:59:39.130Z,10.88
2023-04-20T07:02:06.973Z,11.32
2023-04-20T07:04:36.403Z,12.90
2023-04-20T07:07:04.209Z,10.00
2023-04-20T07:09:32.463Z,11.60
2023-04-20T07:12:00.996Z,11.48
2023-04-20T07:14:28.696Z,9.50
2023-04-20T07:16:56.586Z,10.57
2023-04-20T07:19:24.332Z,9.75
2023-04-20T07:21:53.514Z,10.27
2023-04-20T07:24:21.227Z,8.63
2023-04-20T07:26:49.057Z,11.23
2023-04-20T07:29:17.137Z,8.00
2023-04-20T07:31:45.187Z,8.00
2023-04-20T07:34:13.036Z,8.98
2023-04-20T07:36:40.797Z,8.15
2023-04-20T07:39:09.996Z,8.45
2023-04-20T07:41:38.406Z,8.00
2023-04-20T07:44:06.313Z,7.70
2023-04-20T07:46:34.108Z,9.88
2023-04-20T07:49:01.890Z,8.82
2023-04-20T07:51:30.376Z,9.07
2023-04-20T07:53:58.255Z,9.45
2023-04-20T07:56:27.482Z,8.65
2023-04-20T07:58:55.224Z,8.68
2023-04-20T08:01:25.841Z,11.07
2023-04-20T08:03:54.970Z,8.55
2023-04-20T08:06:23.013Z,10.25
2023-04-20T08:08:50.795Z,10.82
2023-04-20T08:11:18.552Z,8.95
2023-04-20T08:13:47.677Z,10.00
2023-04-20T08:16:15.586Z,11.25
2023-04-20T08:18:43.503Z,8.15
2023-04-20T08:21:11.312Z,9.00
2023-04-20T08:23:39.294Z,10.00
2023-04-20T08:26:07.300Z,11.93
2023-04-20T08:28:35.184Z,10.65
2023-04-20T08:31:04.408Z,11.45
2023-04-20T08:33:32.267Z,8.60
2023-04-20T08:36:00.121Z,8.07
2023-04-20T08:38:33.832Z,10.90
2023-04-20T08:41:02.565Z,7.97
2023-04-20T08:43:30.390Z,9.20
2023-04-20T08:45:59.778Z,9.38
2023-04-20T08:48:35.206Z,9.25
2023-04-20T08:51:03.367Z,9.27
2023-04-20T08:53:31.590Z,8.48
2023-04-20T08:55:59.557Z,11.88
2023-04-20T08:58:31.726Z,7.93
2023-04-20T09:03:37.814Z,8.57
2023-04-20T09:06:07.037Z,8.15
2023-04-20T09:08:38.799Z,9.70
2023-04-20T09:11:06.839Z,6.57
2023-04-20T09:13:35.583Z,10.13
2023-04-20T09:16:12.792Z,8.35
2023-04-20T09:18:52.321Z,9.82
2023-04-20T09:21:20.252Z,7.70
2023-04-20T09:23:57.678Z,6.75
2023-04-20T09:26:25.555Z,7.30
2023-04-20T09:28:53.744Z,8.02
2023-04-20T09:31:22.224Z,7.10
2023-04-20T09:34:02.289Z,8.25
2023-04-20T09:36:38.273Z,6.70
2023-04-20T09:39:08.681Z,6.43
2023-04-20T09:41:37.367Z,8.02
2023-04-20T09:44:06.013Z,7.15
2023-04-20T09:46:35.720Z,6.72
2023-04-20T09:49:06.474Z,9.85
2023-04-20T09:51:36.758Z,11.27
2023-04-20T09:54:06.152Z,8.10
2023-04-20T09:56:35.862Z,6.88
2023-04-20T09:59:04.798Z,6.88
2023-04-20T10:01:34.922Z,6.97
2023-04-20T10:04:08.275Z,7.20
2023-04-20T10:06:37.441Z,11.57
2023-04-20T10:09:07.815Z,9.15
2023-04-20T10:11:49.103Z,9.10
2023-04-20T10:14:23.124Z,6.07
2023-04-20T10:17:00.913Z,7.30
2023-04-20T10:19:40.016Z,8.15
2023-04-20T10:22:09.030Z,7.03
2023-04-20T10:24:38.417Z,7.10
2023-04-20T10:27:17.853Z,7.15
2023-04-20T10:29:45.912Z,6.10
2023-04-20T10:32:23.000Z,7.28
2023-04-20T10:35:02.554Z,8.23
2023-04-20T10:37:32.030Z,6.55
2023-04-20T10:40:00.286Z,8.77
2023-04-20T10:42:29.662Z,8.10
2023-04-20T10:44:57.574Z,6.95
2023-04-20T10:47:29.995Z,9.20
2023-04-20T10:50:09.299Z,10.20
2023-04-20T10:52:39.577Z,9.70
2023-04-20T10:55:18.813Z,11.18
2023-04-20T10:57:46.775Z,8.50
2023-04-20T11:00:19.575Z,7.47
2023-04-20T11:02:49.801Z,9.90
2023-04-20T11:05:21.393Z,8.07
2023-04-20T11:07:53.561Z,9.20
2023-04-20T11:12:49.145Z,8.75
2023-04-20T11:15:16.962Z,8.88
2023-04-20T11:17:46.033Z,8.27
2023-04-20T11:20:17.017Z,8.98
2023-04-20T11:22:57.546Z,10.55
2023-04-20T11:25:25.662Z,11.40
2023-04-20T11:27:53.372Z,12.30
2023-04-20T11:30:21.161Z,8.13
2023-04-20T11:32:55.623Z,8.73
2023-04-20T11:35:23.888Z,9.25
2023-04-20T11:37:53.818Z,6.78
2023-04-20T11:40:21.583Z,7.20
2023-04-20T11:42:49.509Z,11.23
2023-04-20T11:45:17.897Z,7.25
2023-04-20T11:47:46.025Z,8.55
2023-04-20T11:50:14.432Z,8.98
2023-04-20T11:52:42.282Z,11.20
2023-04-20T11:55:11.654Z,8.38
2023-04-20T11:57:39.450Z,10.23
2023-04-20T12:00:08.975Z,8.35
2023-04-20T12:02:36.973Z,9.32
2023-04-20T12:05:05.520Z,8.77
2023-04-20T12:07:33.326Z,9.55
2023-04-20T12:10:01.347Z,8.50
2023-04-20T12:12:30.996Z,9.23
2023-04-20T12:14:58.916Z,10.32
2023-04-20T12:17:27.180Z,11.32
2023-04-20T12:19:57.950Z,8.40
2023-04-20T12:22:25.797Z,8.68
2023-04-20T12:24:53.642Z,9.65
2023-04-20T12:27:21.497Z,7.82
2023-04-20T12:29:50.634Z,9.35
2023-04-20T12:32:18.502Z,8.48
2023-04-20T12:34:46.221Z,8.38
2023-04-20T12:37:14.800Z,8.05
2023-04-20T12:39:42.630Z,7.00
2023-04-20T12:42:10.461Z,8.93
2023-04-20T12:44:38.288Z,10.60
2023-04-20T12:47:07.427Z,6.60
2023-04-20T12:49:35.235Z,6.20
2023-04-20T12:52:03.063Z,8.27
2023-04-20T12:54:30.864Z,8.05
2023-04-20T12:56:58.578Z,5.97
2023-04-20T12:59:26.279Z,7.78
2023-04-20T13:01:54.094Z,9.30
2023-04-20T13:04:23.728Z,8.07
2023-04-20T13:06:51.872Z,6.55
2023-04-20T13:09:19.624Z,5.85
2023-04-20T13:11:47.676Z,11.35
2023-04-20T13:14:15.803Z,11.73
2023-04-20T13:16:43.703Z,7.05
2023-04-20T13:19:11.516Z,5.78
2023-04-20T13:21:40.593Z,8.50
2023-04-20T13:24:08.782Z,9.68
2023-04-20T13:26:37.132Z,6.72
2023-04-20T13:29:05.176Z,9.77
2023-04-20T13:31:33.002Z,9.68
2023-04-20T13:34:00.837Z,9.13
2023-04-20T13:36:29.402Z,12.35
2023-04-20T13:38:58.618Z,8.40
2023-04-20T13:41:26.416Z,11.15
2023-04-20T13:43:54.128Z,7.63
2023-04-20T13:46:22.018Z,8.52
2023-04-20T13:48:49.861Z,7.38
2023-04-20T13:51:17.610Z,6.97
2023-04-20T13:53:45.436Z,6.65
2023-04-20T13:56:14.586Z,7.18
2023-04-20T13:58:42.295Z,6.10
2023-04-20T14:01:10.408Z,6.72
2023-04-20T14:03:38.404Z,7.85
2023-04-20T14:06:06.872Z,6.38
2023-04-20T14:08:34.599Z,6.85
2023-04-20T14:11:02.707Z,7.00
2023-04-20T14:13:32.045Z,8.07
2023-04-20T14:15:59.843Z,5.22
2023-04-20T14:18:27.603Z,4.07
2023-04-20T14:20:55.477Z,5.88
2023-04-20T14:23:23.173Z,4.88
2023-04-20T14:25:51.005Z,2.85
2023-04-20T14:28:18.820Z,3.50
2023-04-20T14:30:47.932Z,3.22
2023-04-20T14:33:15.677Z,2.45
2023-04-20T14:35:43.895Z,2.38
2023-04-20T14:38:11.651Z,2.85
2023-04-20T14:40:39.883Z,5.35
2023-04-20T14:43:07.702Z,1.88
2023-04-20T14:45:35.513Z,1.73
2023-04-20T14:48:05.890Z,1.60
2023-04-20T14:50:33.660Z,1.85
2023-04-20T14:53:01.423Z,1.88
2023-04-20T14:55:29.491Z,3.90
2023-04-20T14:57:58.787Z,1.42
2023-04-20T15:00:28.628Z,2.33
2023-04-20T15:02:57.448Z,2.33
2023-04-20T15:05:28.088Z,2.20
2023-04-20T15:07:55.997Z,1.60
2023-04-20T15:10:24.214Z,2.45
2023-04-20T15:12:52.208Z,2.33
2023-04-20T15:15:20.155Z,2.53
2023-04-20T15:17:48.183Z,3.38
2023-04-20T15:20:16.515Z,2.38
2023-04-20T15:22:45.831Z,3.10
2023-04-20T15:25:13.679Z,3.10
2023-04-20T15:27:41.517Z,2.42
2023-04-20T15:30:10.288Z,2.85
2023-04-20T15:32:38.140Z,12.00
2023-04-20T15:35:06.798Z,4.80
2023-04-20T15:37:34.544Z,3.03
2023-04-20T15:40:04.475Z,2.78
2023-04-20T15:42:32.374Z,3.38
2023-04-20T15:45:00.451Z,5.18
2023-04-20T15:47:28.253Z,3.55
2023-04-20T15:50:01.280Z,3.42
2023-04-20T15:52:30.933Z,3.88
2023-04-20T15:54:58.644Z,6.07
2023-04-20T15:57:27.849Z,4.90
2023-04-20T15:59:55.725Z,5.60
2023-04-20T16:02:23.846Z,4.85
2023-04-20T16:04:52.063Z,4.47
2023-04-20T16:07:19.952Z,4.72
2023-04-20T16:09:48.197Z,5.15
2023-04-20T16:12:16.045Z,5.93
2023-04-20T16:14:45.380Z,3.88
2023-04-20T16:17:13.195Z,6.88
2023-04-20T16:19:41.516Z,5.05
2023-04-20T16:22:09.272Z,4.60
2023-04-20T16:24:37.074Z,4.15
2023-04-20T16:27:05.006Z,5.80
2023-04-20T16:29:32.801Z,4.47
2023-04-20T16:32:01.872Z,4.65
2023-04-20T16:34:30.853Z,5.95
2023-04-20T16:36:58.647Z,6.38
2023-04-20T16:39:26.444Z,5.25
2023-04-20T16:41:54.193Z,4.20
2023-04-20T16:44:22.051Z,3.78
2023-04-20T16:46:51.050Z,4.43
2023-04-20T16:49:20.345Z,4.50
2023-04-20T16:51:48.552Z,4.70
2023-04-20T16:54:16.733Z,5.15
2023-04-20T16:56:44.715Z,4.03
2023-04-20T16:59:12.535Z,4.70
2023-04-20T17:01:40.401Z,3.92
2023-04-20T17:04:08.326Z,3.15
2023-04-20T17:06:37.752Z,4.15
2023-04-20T17:09:07.116Z,4.68
2023-04-20T17:11:36.048Z,9.73
2023-04-20T17:14:04.214Z,3.42
2023-04-20T17:16:32.049Z,3.60
2023-04-20T17:18:59.849Z,6.18
2023-04-20T17:21:28.922Z,2.50
2023-04-20T17:23:58.116Z,2.30
2023-04-20T17:26:25.839Z,2.83
2023-04-20T17:28:53.659Z,3.88
2023-04-20T17:31:21.476Z,6.40
2023-04-20T17:33:49.216Z,5.60
2023-04-20T17:36:17.101Z,2.45
2023-04-20T17:38:45.065Z,4.00
2023-04-20T17:41:14.180Z,3.28
2023-04-20T17:43:41.904Z,2.40
2023-04-20T17:46:09.681Z,2.33
2023-04-20T17:48:37.756Z,3.03
2023-04-20T17:51:05.570Z,2.58
2023-04-20T17:53:33.386Z,4.35
2023-04-20T17:56:01.300Z,2.22
2023-04-20T17:58:30.367Z,2.78
2023-04-20T18:01:09.007Z,4.40
2023-04-20T18:03:37.000Z,2.45
2023-04-20T18:06:05.473Z,1.88
2023-04-20T18:08:34.477Z,2.67
2023-04-20T18:11:03.084Z,2.63
2023-04-20T18:13:32.139Z,3.92
2023-04-20T18:16:01.564Z,4.43
2023-04-20T18:18:29.289Z,7.30
2023-04-20T18:20:56.996Z,2.60
2023-04-20T18:23:24.807Z,3.35
2023-04-20T18:25:53.708Z,3.35
2023-04-20T18:28:21.618Z,4.60
2023-04-20T18:30:50.957Z,4.80
2023-04-20T18:33:19.029Z,2.90
2023-04-20T18:35:47.171Z,3.15
2023-04-20T18:38:15.806Z,3.30
2023-04-20T18:40:43.763Z,2.33
2023-04-20T18:43:11.492Z,1.88
2023-04-20T18:45:39.340Z,2.97
2023-04-20T18:48:08.531Z,2.13
2023-04-20T18:50:36.281Z,3.33
2023-04-20T18:53:05.066Z,5.18
2023-04-20T18:55:33.105Z,40.95
2023-04-20T18:58:01.148Z,6.75
2023-04-20T19:00:28.873Z,2.50
2023-04-20T19:02:56.835Z,3.08
2023-04-20T19:05:26.404Z,2.88
2023-04-20T19:07:54.396Z,4.93
2023-04-20T19:10:22.128Z,3.47
2023-04-20T19:12:49.846Z,3.55
2023-04-20T19:15:22.569Z,5.63
2023-04-20T19:17:50.335Z,5.57
2023-04-20T19:20:18.413Z,3.17
2023-04-20T19:22:47.552Z,4.45
2023-04-20T19:25:15.411Z,5.20
2023-04-20T19:27:43.214Z,7.93
2023-04-20T19:30:11.523Z,5.75
2023-04-20T19:32:39.684Z,4.22
2023-04-20T19:35:07.810Z,4.20
2023-04-20T19:37:35.703Z,3.85
2023-04-20T19:40:06.282Z,8.18
2023-04-20T19:42:35.260Z,6.60
2023-04-20T19:45:03.446Z,3.65
2023-04-20T19:47:31.147Z,3.95
2023-04-20T19:49:59.171Z,3.47
2023-04-20T19:52:27.636Z,3.25
2023-04-20T19:54:55.360Z,3.80
2023-04-20T19:57:24.557Z,5.32
2023-04-20T19:59:52.502Z,4.97
2023-04-20T20:02:20.341Z,4.45
2023-04-20T20:04:49.939Z,6.68
2023-04-20T20:07:18.158Z,5.68
2023-04-20T20:09:46.168Z,3.75
2023-04-20T20:12:14.118Z,4.53
2023-04-20T20:14:43.212Z,7.78
2023-04-20T20:17:11.217Z,3.88
2023-04-20T20:19:40.336Z,5.65
2023-04-20T20:22:08.079Z,6.20
2023-04-20T20:24:36.069Z,6.38
2023-04-20T20:27:03.896Z,7.45
2023-04-20T20:29:32.194Z,5.78
2023-04-20T20:32:01.333Z,6.72
2023-04-20T20:34:29.098Z,5.60
2023-04-20T20:36:56.953Z,5.28
2023-04-20T20:39:24.658Z,5.50
2023-04-20T20:41:52.398Z,9.27
2023-04-20T20:44:20.768Z,10.13
2023-04-20T20:46:48.680Z,6.50
2023-04-20T20:49:18.031Z,6.47
2023-04-20T20:51:46.572Z,7.53
2023-04-20T20:54:14.363Z,5.85
2023-04-20T20:56:43.579Z,8.13
2023-04-20T20:59:11.678Z,10.30
2023-04-20T21:01:39.526Z,14.57
2023-04-20T21:04:07.671Z,12.95
2023-04-20T21:06:36.981Z,9.98
2023-04-20T21:09:05.162Z,10.52
2023-04-20T21:11:32.910Z,12.48
2023-04-20T21:14:01.772Z,10.88
2023-04-20T21:16:29.968Z,12.40
2023-04-20T21:18:57.706Z,10.57
2023-04-20T21:21:25.550Z,10.90
2023-04-20T21:23:54.776Z,9.52
2023-04-20T21:26:22.504Z,10.02
2023-04-20T21:28:50.238Z,11.93
2023-04-20T21:31:17.933Z,10.57
2023-04-20T21:33:45.954Z,13.20
2023-04-20T21:36:13.731Z,10.93
2023-04-20T21:38:41.474Z,14.68
2023-04-20T21:41:10.615Z,17.67
2023-04-20T21:43:38.693Z,16.67
2023-04-20T21:46:06.598Z,20.92
2023-04-20T21:48:34.272Z,20.30
2023-04-20T21:51:01.961Z,23.40
2023-04-20T21:53:29.641Z,27.02
2023-04-20T21:55:57.669Z,27.65
2023-04-20T21:58:26.779Z,27.15
2023-04-20T22:00:54.559Z,26.92
2023-04-20T22:03:22.511Z,27.42
2023-04-20T22:05:50.539Z,27.38
2023-04-20T22:08:21.943Z,30.33
2023-04-20T22:10:50.488Z,25.58
2023-04-20T22:13:18.598Z,28.27
2023-04-20T22:15:48.976Z,28.48
2023-04-20T22:18:18.882Z,24.13
2023-04-20T22:20:46.807Z,22.58
2023-04-20T22:23:14.524Z,21.88
2023-04-20T22:25:42.805Z,23.15
2023-04-20T22:28:11.274Z,21.92
2023-04-20T22:30:39.001Z,22.45
2023-04-20T22:33:08.204Z,24.38
2023-04-20T22:35:36.043Z,24.10
2023-04-20T22:38:03.812Z,21.98
2023-04-20T22:40:31.846Z,25.00
2023-04-20T22:42:59.607Z,22.27
2023-04-20T22:45:27.349Z,25.60
2023-04-20T22:47:55.170Z,23.90
2023-04-20T22:50:24.624Z,25.10
2023-04-20T22:52:52.536Z,26.25
2023-04-20T22:55:20.924Z,29.25
2023-04-20T22:57:51.589Z,32.33
2023-04-20T23:00:19.607Z,28.40
2023-04-20T23:02:47.608Z,31.05
2023-04-20T23:05:20.122Z,31.00
2023-04-20T23:07:49.451Z,27.48
2023-04-20T23:10:17.169Z,28.63
2023-04-20T23:12:46.822Z,30.08
2023-04-20T23:15:14.801Z,32.42
2023-04-20T23:17:42.633Z,32.75
2023-04-20T23:20:13.435Z,33.78
2023-04-20T23:22:41.451Z,35.08
2023-04-20T23:25:11.327Z,39.13
2023-04-20T23:27:39.378Z,37.45
2023-04-20T23:30:08.757Z,39.70
2023-04-20T23:32:37.856Z,41.33
2023-04-20T23:35:06.521Z,39.72
2023-04-20T23:37:34.332Z,38.00
2023-04-20T23:40:02.246Z,37.45
2023-04-20T23:42:31.316Z,36.20
2023-04-20T23:44:59.494Z,39.40
2023-04-20T23:47:27.257Z,32.42
2023-04-20T23:49:54.949Z,31.13
2023-04-20T23:52:23.181Z,28.20
2023-04-20T23:54:50.909Z,25.70
2023-04-20T23:57:18.789Z,27.05
2023-04-20T23:59:47.952Z,26.33
